Terminal Aerodrome Forecast
Issued by NWS Cleveland, OH

Home | Current Version | Previous Version | Graphics & Text | Print | Product List | Glossary On
Versions: 1 2 3 4 5 6 7 8 9 10 11 12 13 14 15 16 17 18
000
FTUS41 KCLE 190700 AAA
TAFTOL
TAF AMD
KTOL 190725Z 1907/2006 10003KT P6SM -SHRA BKN050 OVC100
      TEMPO 1910/1911 3SM SHRA BR OVC020
     FM191100 00000KT 5SM -SHRA OVC025
     FM191500 VRB03KT P6SM OVC025
     FM191900 VRB03KT P6SM BKN050
     FM192200 VRB03KT P6SM OVC250=

USA.gov is the U.S. government's official web portal to all federal, state and local government web resources and services.